A.bryukhovetskiy — UCWK — position and weather

sailwx.info

Track history (hours):
 
Tides and Currents Weather Stations Pressure Air Temp Water Temp Dewpoint Dewpoint Depression Visibility Wind Speed Wind Dir Waves Ship Positions

A.bryukhovetskiy

Last reported at 2017-Oct-18 16:53 UTC. Time now 2017-Oct-18 17:05 UTC.
Position N 45°10' E 036°34'.

Length 138 m; draft 3.9 m.

Type: Cargo ship. MMSI: 273378000.

Date/timePositionNaut miles runAvg speedWind from/ knotsBaromVisibWave heightAir tempDewpointWater temp
2017-Oct-18 16:53N 45°10' E 036°34'0 0.1
2017-Oct-18 16:30N 45°10' E 036°34'0 0.0
2017-Oct-18 16:00N 45°10' E 036°34'0 0.0
2017-Oct-18 14:55N 45°10' E 036°34'0 0.0
2017-Oct-18 13:55N 45°10' E 036°34'0 0.0
2017-Oct-18 13:30N 45°10' E 036°34'0 0.0
2017-Oct-18 13:00N 45°10' E 036°34'0 0.0
2017-Oct-18 12:14N 45°10' E 036°34'0 0.0
2017-Oct-18 12:00N 45°10' E 036°34'0 0.1
2017-Oct-18 10:42N 45°10' E 036°34'0 0.2
2017-Oct-18 10:23N 45°10' E 036°34'0 0.0
2017-Oct-18 10:00N 45°10' E 036°34'0 0.0
2017-Oct-18 08:25N 45°10' E 036°34'2 4.1
2017-Oct-18 07:53N 45°10' E 036°31'3 7.0
2017-Oct-18 07:30N 45°12' E 036°28'4 7.2
2017-Oct-18 07:00N 45°15' E 036°28'3 6.9
2017-Oct-18 06:31N 45°19' E 036°30'4 8.5
2017-Oct-18 06:00N 45°20' E 036°36'4 7.7
2017-Oct-18 05:30N 45°23' E 036°40'4 7.6
2017-Oct-18 05:00N 45°27' E 036°41'2 3.7
2017-Oct-18 04:30N 45°28' E 036°41'1 2.5
2017-Oct-18 04:00N 45°29' E 036°39'0 0.3
2017-Oct-18 03:30N 45°29' E 036°39'0 0.0
2017-Oct-18 03:00N 45°29' E 036°39'0 0.0
2017-Oct-18 02:27N 45°29' E 036°39'0 0.0
2017-Oct-18 01:54N 45°29' E 036°39'0 0.0
2017-Oct-18 01:30N 45°29' E 036°39'0 0.0
2017-Oct-18 01:00N 45°29' E 036°39'0 0.0
2017-Oct-18 00:30N 45°29' E 036°39'0 0.0
2017-Oct-18 00:00N 45°29' E 036°39'0 0.0
2017-Oct-17 23:21N 45°29' E 036°39'0 0.0
2017-Oct-17 23:00N 45°29' E 036°39'0 0.0
2017-Oct-17 22:30N 45°29' E 036°39'0 0.0
2017-Oct-17 22:00N 45°29' E 036°39'0 0.0
2017-Oct-17 21:30N 45°29' E 036°39'0 0.0
2017-Oct-17 21:00N 45°29' E 036°39'0 0.0
2017-Oct-17 20:30N 45°29' E 036°39'0 0.0
2017-Oct-17 19:57N 45°29' E 036°39'0 0.0
2017-Oct-17 19:30N 45°29' E 036°39'0 0.0
2017-Oct-17 19:00N 45°29' E 036°39'0 0.0
2017-Oct-17 18:30N 45°29' E 036°39'0 0.0
2017-Oct-17 17:57N 45°29' E 036°39'0 0.0
2017-Oct-17 17:30N 45°29' E 036°39'0 0.0
2017-Oct-17 17:00N 45°29' E 036°39'0 0.0
2017-Oct-17 16:30N 45°29' E 036°39'0 0.0
2017-Oct-17 16:00N 45°29' E 036°39'0 0.0
2017-Oct-17 15:30N 45°29' E 036°39'0 0.0
2017-Oct-17 15:00N 45°29' E 036°39'0 0.0
2017-Oct-17 14:30N 45°29' E 036°39'1 2.6
2017-Oct-17 14:00N 45°30' E 036°41'6 6.5
2017-Oct-17 13:08N 45°35' E 036°45'1 6.8
2017-Oct-17 12:56N 45°36' E 036°46'  
2017-Oct-09 01:35N 45°29' E 036°43'1 7.9
2017-Oct-09 01:30N 45°28' E 036°43'4 7.9
2017-Oct-09 01:00N 45°24' E 036°41'4 7.5
2017-Oct-09 00:30N 45°21' E 036°38'4 8.9
2017-Oct-09 00:00N 45°19' E 036°33'4 7.7
2017-Oct-08 23:30N 45°16' E 036°29'4 7.1
2017-Oct-08 23:00N 45°13' E 036°29'2 3.1
2017-Oct-08 22:30N 45°12' E 036°31'0 0.0
2017-Oct-08 21:06N 45°12' E 036°31'0 0.0
2017-Oct-08 18:47N 45°12' E 036°31'0 0.1
2017-Oct-08 17:14N 45°12' E 036°31'0 0.0
2017-Oct-08 16:59N 45°12' E 036°31'  
Track history (hours):
 
Tides and Currents Weather Stations Pressure Air Temp Water Temp Dewpoint Dewpoint Depression Visibility Wind Speed Wind Dir Waves Ship Positions

A.bryukhovetskiy

Last reported at 2017-Oct-18 16:53 UTC. Time now 2017-Oct-18 17:05 UTC.
Position N 45°10' E 036°34'.

Length 138 m; draft 3.9 m.

Type: Cargo ship. MMSI: 273378000.

Date/timePositionNaut miles runAvg speedWind from/ knotsBaromVisibWave heightAir tempDewpointWater temp
2017-Oct-18 16:53N 45°10' E 036°34'0 0.1
2017-Oct-18 16:30N 45°10' E 036°34'0 0.0
2017-Oct-18 16:00N 45°10' E 036°34'0 0.0
2017-Oct-18 14:55N 45°10' E 036°34'0 0.0
2017-Oct-18 13:55N 45°10' E 036°34'0 0.0
2017-Oct-18 13:30N 45°10' E 036°34'0 0.0
2017-Oct-18 13:00N 45°10' E 036°34'0 0.0
2017-Oct-18 12:14N 45°10' E 036°34'0 0.0
2017-Oct-18 12:00N 45°10' E 036°34'0 0.1
2017-Oct-18 10:42N 45°10' E 036°34'0 0.2
2017-Oct-18 10:23N 45°10' E 036°34'0 0.0
2017-Oct-18 10:00N 45°10' E 036°34'0 0.0
2017-Oct-18 08:25N 45°10' E 036°34'2 4.1
2017-Oct-18 07:53N 45°10' E 036°31'3 7.0
2017-Oct-18 07:30N 45°12' E 036°28'4 7.2
2017-Oct-18 07:00N 45°15' E 036°28'3 6.9
2017-Oct-18 06:31N 45°19' E 036°30'4 8.5
2017-Oct-18 06:00N 45°20' E 036°36'4 7.7
2017-Oct-18 05:30N 45°23' E 036°40'4 7.6
2017-Oct-18 05:00N 45°27' E 036°41'2 3.7
2017-Oct-18 04:30N 45°28' E 036°41'1 2.5
2017-Oct-18 04:00N 45°29' E 036°39'0 0.3
2017-Oct-18 03:30N 45°29' E 036°39'0 0.0
2017-Oct-18 03:00N 45°29' E 036°39'0 0.0
2017-Oct-18 02:27N 45°29' E 036°39'0 0.0
2017-Oct-18 01:54N 45°29' E 036°39'0 0.0
2017-Oct-18 01:30N 45°29' E 036°39'0 0.0
2017-Oct-18 01:00N 45°29' E 036°39'0 0.0
2017-Oct-18 00:30N 45°29' E 036°39'0 0.0
2017-Oct-18 00:00N 45°29' E 036°39'0 0.0
2017-Oct-17 23:21N 45°29' E 036°39'0 0.0
2017-Oct-17 23:00N 45°29' E 036°39'0 0.0
2017-Oct-17 22:30N 45°29' E 036°39'0 0.0
2017-Oct-17 22:00N 45°29' E 036°39'0 0.0
2017-Oct-17 21:30N 45°29' E 036°39'0 0.0
2017-Oct-17 21:00N 45°29' E 036°39'0 0.0
2017-Oct-17 20:30N 45°29' E 036°39'0 0.0
2017-Oct-17 19:57N 45°29' E 036°39'0 0.0
2017-Oct-17 19:30N 45°29' E 036°39'0 0.0
2017-Oct-17 19:00N 45°29' E 036°39'0 0.0
2017-Oct-17 18:30N 45°29' E 036°39'0 0.0
2017-Oct-17 17:57N 45°29' E 036°39'0 0.0
2017-Oct-17 17:30N 45°29' E 036°39'0 0.0
2017-Oct-17 17:00N 45°29' E 036°39'0 0.0
2017-Oct-17 16:30N 45°29' E 036°39'0 0.0
2017-Oct-17 16:00N 45°29' E 036°39'0 0.0
2017-Oct-17 15:30N 45°29' E 036°39'0 0.0
2017-Oct-17 15:00N 45°29' E 036°39'0 0.0
2017-Oct-17 14:30N 45°29' E 036°39'1 2.6
2017-Oct-17 14:00N 45°30' E 036°41'6 6.5
2017-Oct-17 13:08N 45°35' E 036°45'1 6.8
2017-Oct-17 12:56N 45°36' E 036°46'  
2017-Oct-09 01:35N 45°29' E 036°43'1 7.9
2017-Oct-09 01:30N 45°28' E 036°43'4 7.9
2017-Oct-09 01:00N 45°24' E 036°41'4 7.5
2017-Oct-09 00:30N 45°21' E 036°38'4 8.9
2017-Oct-09 00:00N 45°19' E 036°33'4 7.7
2017-Oct-08 23:30N 45°16' E 036°29'4 7.1
2017-Oct-08 23:00N 45°13' E 036°29'2 3.1
2017-Oct-08 22:30N 45°12' E 036°31'0 0.0
2017-Oct-08 21:06N 45°12' E 036°31'0 0.0
2017-Oct-08 18:47N 45°12' E 036°31'0 0.1
2017-Oct-08 17:14N 45°12' E 036°31'0 0.0
2017-Oct-08 16:59N 45°12' E 036°31'  

Dump ship's entire track history